sensor_id;sensor_type;location;lat;lon;timestamp;temperature;humidity
39493;DHT22;25176;51.060;3.720;2022-09-09T00:03:54;18.20;99.90
39493;DHT22;25176;51.060;3.720;2022-09-09T00:06:26;18.20;99.90
39493;DHT22;25176;51.060;3.720;2022-09-09T00:08:58;18.20;99.90
39493;DHT22;25176;51.060;3.720;2022-09-09T00:11:32;18.20;99.90
39493;DHT22;25176;51.060;3.720;2022-09-09T00:14:03;18.20;99.90
39493;DHT22;25176;51.060;3.720;2022-09-09T00:16:34;18.30;99.90
39493;DHT22;25176;51.060;3.720;2022-09-09T00:19:05;18.30;99.90
39493;DHT22;25176;51.060;3.720;2022-09-09T00:23:57;18.30;99.90
39493;DHT22;25176;51.060;3.720;2022-09-09T00:31:33;18.30;99.90
39493;DHT22;25176;51.060;3.720;2022-09-09T00:36:38;18.20;99.90
39493;DHT22;25176;51.060;3.720;2022-09-09T00:39:04;18.10;99.90
39493;DHT22;25176;51.060;3.720;2022-09-09T00:44:19;18.20;99.90
39493;DHT22;25176;51.060;3.720;2022-09-09T00:54:44;18.00;99.90
39493;DHT22;25176;51.060;3.720;2022-09-09T00:57:22;18.10;99.90
39493;DHT22;25176;51.060;3.720;2022-09-09T00:59:54;18.00;99.90
39493;DHT22;25176;51.060;3.720;2022-09-09T01:04:47;18.00;99.90
39493;DHT22;25176;51.060;3.720;2022-09-09T01:07:16;17.90;99.90
39493;DHT22;25176;51.060;3.720;2022-09-09T01:09:58;18.00;99.90
39493;DHT22;25176;51.060;3.720;2022-09-09T01:12:29;18.00;99.90
39493;DHT22;25176;51.060;3.720;2022-09-09T01:15:10;18.00;99.90
39493;DHT22;25176;51.060;3.720;2022-09-09T01:20:24;18.10;99.90
39493;DHT22;25176;51.060;3.720;2022-09-09T01:28:30;17.80;99.90
39493;DHT22;25176;51.060;3.720;2022-09-09T01:30:55;17.80;99.90
39493;DHT22;25176;51.060;3.720;2022-09-09T01:33:21;17.90;99.90
39493;DHT22;25176;51.060;3.720;2022-09-09T01:38:25;17.80;99.90
39493;DHT22;25176;51.060;3.720;2022-09-09T01:40:51;17.70;99.90
39493;DHT22;25176;51.060;3.720;2022-09-09T01:43:18;17.80;99.90
39493;DHT22;25176;51.060;3.720;2022-09-09T01:45:44;17.80;99.90
39493;DHT22;25176;51.060;3.720;2022-09-09T01:48:11;17.80;99.90
39493;DHT22;25176;51.060;3.720;2022-09-09T01:50:37;17.80;99.90
39493;DHT22;25176;51.060;3.720;2022-09-09T01:53:02;17.70;99.90
39493;DHT22;25176;51.060;3.720;2022-09-09T01:55:33;17.70;99.90
39493;DHT22;25176;51.060;3.720;2022-09-09T02:00:30;17.70;99.90
39493;DHT22;25176;51.060;3.720;2022-09-09T02:06:25;17.70;99.90
39493;DHT22;25176;51.060;3.720;2022-09-09T02:08:41;17.70;99.90
39493;DHT22;25176;51.060;3.720;2022-09-09T02:11:15;17.60;99.90
39493;DHT22;25176;51.060;3.720;2022-09-09T02:13:40;17.70;99.90
39493;DHT22;25176;51.060;3.720;2022-09-09T02:16:08;17.70;99.90
39493;DHT22;25176;51.060;3.720;2022-09-09T02:21:06;17.70;99.90
39493;DHT22;25176;51.060;3.720;2022-09-09T02:23:32;17.60;99.90
39493;DHT22;25176;51.060;3.720;2022-09-09T02:25:59;17.60;99.90
39493;DHT22;25176;51.060;3.720;2022-09-09T02:28:26;17.60;99.90
39493;DHT22;25176;51.060;3.720;2022-09-09T02:30:53;17.60;99.90
39493;DHT22;25176;51.060;3.720;2022-09-09T02:33:27;17.60;99.90
39493;DHT22;25176;51.060;3.720;2022-09-09T02:35:53;17.70;99.90
39493;DHT22;25176;51.060;3.720;2022-09-09T02:38:21;17.70;99.90
39493;DHT22;25176;51.060;3.720;2022-09-09T02:40:49;17.70;99.90
39493;DHT22;25176;51.060;3.720;2022-09-09T02:43:15;17.60;99.90
39493;DHT22;25176;51.060;3.720;2022-09-09T02:45:49;17.60;99.90
39493;DHT22;25176;51.060;3.720;2022-09-09T02:48:21;17.60;99.90
39493;DHT22;25176;51.060;3.720;2022-09-09T02:51:06;17.60;99.90
39493;DHT22;25176;51.060;3.720;2022-09-09T02:53:49;17.50;99.90
39493;DHT22;25176;51.060;3.720;2022-09-09T02:56:16;17.40;99.90
39493;DHT22;25176;51.060;3.720;2022-09-09T02:58:42;17.50;99.90
39493;DHT22;25176;51.060;3.720;2022-09-09T03:01:08;17.60;99.90
39493;DHT22;25176;51.060;3.720;2022-09-09T03:03:34;17.60;99.90
39493;DHT22;25176;51.060;3.720;2022-09-09T03:05:59;17.60;99.90
39493;DHT22;25176;51.060;3.720;2022-09-09T03:08:25;17.50;99.90
39493;DHT22;25176;51.060;3.720;2022-09-09T03:10:57;17.50;99.90
39493;DHT22;25176;51.060;3.720;2022-09-09T03:13:23;17.50;99.90
39493;DHT22;25176;51.060;3.720;2022-09-09T03:15:49;17.50;99.90
39493;DHT22;25176;51.060;3.720;2022-09-09T03:18:14;17.50;99.90
39493;DHT22;25176;51.060;3.720;2022-09-09T03:20:40;17.50;99.90
39493;DHT22;25176;51.060;3.720;2022-09-09T03:23:07;17.50;99.90
39493;DHT22;25176;51.060;3.720;2022-09-09T03:25:32;17.50;99.90
39493;DHT22;25176;51.060;3.720;2022-09-09T03:27:58;17.50;99.90
39493;DHT22;25176;51.060;3.720;2022-09-09T03:30:25;17.50;99.90
39493;DHT22;25176;51.060;3.720;2022-09-09T03:32:51;17.50;99.90
39493;DHT22;25176;51.060;3.720;2022-09-09T03:35:17;17.40;99.90
39493;DHT22;25176;51.060;3.720;2022-09-09T03:37:43;17.40;99.90
39493;DHT22;25176;51.060;3.720;2022-09-09T03:40:09;17.40;99.90
39493;DHT22;25176;51.060;3.720;2022-09-09T03:42:37;17.40;99.90
39493;DHT22;25176;51.060;3.720;2022-09-09T03:45:04;17.30;99.90
39493;DHT22;25176;51.060;3.720;2022-09-09T03:47:30;17.30;99.90
39493;DHT22;25176;51.060;3.720;2022-09-09T03:49:55;17.40;99.90
39493;DHT22;25176;51.060;3.720;2022-09-09T03:52:21;17.50;99.90
39493;DHT22;25176;51.060;3.720;2022-09-09T03:54:50;17.50;99.90
39493;DHT22;25176;51.060;3.720;2022-09-09T03:57:16;17.50;99.90
39493;DHT22;25176;51.060;3.720;2022-09-09T03:59:42;17.50;99.90
39493;DHT22;25176;51.060;3.720;2022-09-09T04:02:08;17.50;99.90
39493;DHT22;25176;51.060;3.720;2022-09-09T04:04:34;17.40;99.90
39493;DHT22;25176;51.060;3.720;2022-09-09T04:07:00;17.50;99.90
39493;DHT22;25176;51.060;3.720;2022-09-09T04:09:25;17.60;99.90
39493;DHT22;25176;51.060;3.720;2022-09-09T04:11:50;17.60;99.90
39493;DHT22;25176;51.060;3.720;2022-09-09T04:14:18;17.50;99.90
39493;DHT22;25176;51.060;3.720;2022-09-09T04:16:43;17.40;99.90
39493;DHT22;25176;51.060;3.720;2022-09-09T04:19:10;17.50;99.90
39493;DHT22;25176;51.060;3.720;2022-09-09T04:21:37;17.50;99.90
39493;DHT22;25176;51.060;3.720;2022-09-09T04:24:05;17.50;99.90
39493;DHT22;25176;51.060;3.720;2022-09-09T04:26:30;17.50;99.90
39493;DHT22;25176;51.060;3.720;2022-09-09T04:28:56;17.50;99.90
39493;DHT22;25176;51.060;3.720;2022-09-09T04:31:21;17.50;99.90
39493;DHT22;25176;51.060;3.720;2022-09-09T04:33:49;17.50;99.90
39493;DHT22;25176;51.060;3.720;2022-09-09T04:36:14;17.50;99.90
39493;DHT22;25176;51.060;3.720;2022-09-09T04:38:40;17.50;99.90
39493;DHT22;25176;51.060;3.720;2022-09-09T04:41:05;17.40;99.90
39493;DHT22;25176;51.060;3.720;2022-09-09T04:43:32;17.40;99.90
39493;DHT22;25176;51.060;3.720;2022-09-09T04:45:57;17.40;99.90
39493;DHT22;25176;51.060;3.720;2022-09-09T04:48:24;17.50;99.90
39493;DHT22;25176;51.060;3.720;2022-09-09T04:51:09;17.40;99.90
39493;DHT22;25176;51.060;3.720;2022-09-09T04:53:36;17.50;99.90
39493;DHT22;25176;51.060;3.720;2022-09-09T04:56:06;17.50;99.90
39493;DHT22;25176;51.060;3.720;2022-09-09T04:58:32;17.50;99.90
39493;DHT22;25176;51.060;3.720;2022-09-09T05:01:08;17.50;99.90
39493;DHT22;25176;51.060;3.720;2022-09-09T05:03:34;17.50;99.90
39493;DHT22;25176;51.060;3.720;2022-09-09T05:06:05;17.50;99.90
39493;DHT22;25176;51.060;3.720;2022-09-09T05:08:31;17.50;99.90
39493;DHT22;25176;51.060;3.720;2022-09-09T05:10:57;17.50;99.90
39493;DHT22;25176;51.060;3.720;2022-09-09T05:13:24;17.40;99.90
39493;DHT22;25176;51.060;3.720;2022-09-09T05:15:53;17.40;99.90
39493;DHT22;25176;51.060;3.720;2022-09-09T05:18:19;17.40;99.90
39493;DHT22;25176;51.060;3.720;2022-09-09T05:20:44;17.50;99.90
39493;DHT22;25176;51.060;3.720;2022-09-09T05:23:10;17.50;99.90
39493;DHT22;25176;51.060;3.720;2022-09-09T05:25:37;17.40;99.90
39493;DHT22;25176;51.060;3.720;2022-09-09T05:28:03;17.40;99.90
39493;DHT22;25176;51.060;3.720;2022-09-09T05:30:28;17.40;99.90
39493;DHT22;25176;51.060;3.720;2022-09-09T05:32:57;17.50;99.90
39493;DHT22;25176;51.060;3.720;2022-09-09T05:35:22;17.70;99.90
39493;DHT22;25176;51.060;3.720;2022-09-09T05:37:48;17.70;99.90
39493;DHT22;25176;51.060;3.720;2022-09-09T05:40:13;17.50;99.90
39493;DHT22;25176;51.060;3.720;2022-09-09T05:42:39;17.60;99.90
39493;DHT22;25176;51.060;3.720;2022-09-09T05:45:06;17.60;99.90
39493;DHT22;25176;51.060;3.720;2022-09-09T05:47:33;17.60;99.90
39493;DHT22;25176;51.060;3.720;2022-09-09T05:49:58;17.60;99.90
39493;DHT22;25176;51.060;3.720;2022-09-09T05:52:24;17.50;99.90
39493;DHT22;25176;51.060;3.720;2022-09-09T05:54:51;17.60;99.90
39493;DHT22;25176;51.060;3.720;2022-09-09T05:57:17;17.60;99.90
39493;DHT22;25176;51.060;3.720;2022-09-09T05:59:44;17.60;99.90
39493;DHT22;25176;51.060;3.720;2022-09-09T06:02:10;17.70;99.90
39493;DHT22;25176;51.060;3.720;2022-09-09T06:04:35;17.80;99.90
39493;DHT22;25176;51.060;3.720;2022-09-09T06:07:01;17.80;99.90
39493;DHT22;25176;51.060;3.720;2022-09-09T06:09:26;17.70;99.90
39493;DHT22;25176;51.060;3.720;2022-09-09T06:11:52;17.80;99.90
39493;DHT22;25176;51.060;3.720;2022-09-09T06:14:17;17.70;99.90
39493;DHT22;25176;51.060;3.720;2022-09-09T06:16:43;17.70;99.90
39493;DHT22;25176;51.060;3.720;2022-09-09T06:19:09;17.70;99.90
39493;DHT22;25176;51.060;3.720;2022-09-09T06:21:35;17.70;99.90
39493;DHT22;25176;51.060;3.720;2022-09-09T06:24:05;17.70;99.90
39493;DHT22;25176;51.060;3.720;2022-09-09T06:26:33;17.60;99.90
39493;DHT22;25176;51.060;3.720;2022-09-09T06:28:59;17.60;99.90
39493;DHT22;25176;51.060;3.720;2022-09-09T06:31:26;17.70;99.90
39493;DHT22;25176;51.060;3.720;2022-09-09T06:33:52;17.60;99.90
39493;DHT22;25176;51.060;3.720;2022-09-09T06:36:19;17.60;99.90
39493;DHT22;25176;51.060;3.720;2022-09-09T06:38:45;17.60;99.90
39493;DHT22;25176;51.060;3.720;2022-09-09T06:41:12;17.60;99.90
39493;DHT22;25176;51.060;3.720;2022-09-09T06:43:38;17.70;99.90
39493;DHT22;25176;51.060;3.720;2022-09-09T06:48:29;17.80;99.90
39493;DHT22;25176;51.060;3.720;2022-09-09T06:51:02;17.90;99.90
39493;DHT22;25176;51.060;3.720;2022-09-09T06:53:28;18.10;99.90
39493;DHT22;25176;51.060;3.720;2022-09-09T06:55:53;18.20;99.90
39493;DHT22;25176;51.060;3.720;2022-09-09T06:58:20;18.40;99.90
39493;DHT22;25176;51.060;3.720;2022-09-09T07:00:47;18.70;99.90
39493;DHT22;25176;51.060;3.720;2022-09-09T07:03:13;18.80;99.90
39493;DHT22;25176;51.060;3.720;2022-09-09T07:05:38;18.90;99.90
39493;DHT22;25176;51.060;3.720;2022-09-09T07:08:07;19.00;99.90
39493;DHT22;25176;51.060;3.720;2022-09-09T07:10:45;19.30;99.90
39493;DHT22;25176;51.060;3.720;2022-09-09T07:13:28;19.50;99.90
39493;DHT22;25176;51.060;3.720;2022-09-09T07:15:54;19.50;99.90
39493;DHT22;25176;51.060;3.720;2022-09-09T07:18:20;19.40;99.90
39493;DHT22;25176;51.060;3.720;2022-09-09T07:20:55;19.30;99.90
39493;DHT22;25176;51.060;3.720;2022-09-09T07:23:22;19.20;99.90
39493;DHT22;25176;51.060;3.720;2022-09-09T07:25:48;19.10;99.90
39493;DHT22;25176;51.060;3.720;2022-09-09T07:28:14;19.00;99.90
39493;DHT22;25176;51.060;3.720;2022-09-09T07:30:39;19.10;99.90
39493;DHT22;25176;51.060;3.720;2022-09-09T07:33:05;19.20;99.90
39493;DHT22;25176;51.060;3.720;2022-09-09T07:35:31;19.60;99.90
39493;DHT22;25176;51.060;3.720;2022-09-09T07:37:56;19.90;99.90
39493;DHT22;25176;51.060;3.720;2022-09-09T07:40:23;20.20;99.90
39493;DHT22;25176;51.060;3.720;2022-09-09T07:42:49;20.10;99.90
39493;DHT22;25176;51.060;3.720;2022-09-09T07:45:14;20.20;99.90
39493;DHT22;25176;51.060;3.720;2022-09-09T07:47:40;20.40;99.90
39493;DHT22;25176;51.060;3.720;2022-09-09T07:50:08;20.30;99.90
39493;DHT22;25176;51.060;3.720;2022-09-09T07:52:34;20.30;99.90
39493;DHT22;25176;51.060;3.720;2022-09-09T07:55:00;20.10;99.90
39493;DHT22;25176;51.060;3.720;2022-09-09T07:57:28;19.80;99.90
39493;DHT22;25176;51.060;3.720;2022-09-09T07:59:55;19.60;99.90
39493;DHT22;25176;51.060;3.720;2022-09-09T08:02:22;19.50;99.90
39493;DHT22;25176;51.060;3.720;2022-09-09T08:04:48;19.50;99.90
39493;DHT22;25176;51.060;3.720;2022-09-09T08:07:14;19.40;99.90
39493;DHT22;25176;51.060;3.720;2022-09-09T08:09:39;19.20;99.90
39493;DHT22;25176;51.060;3.720;2022-09-09T08:12:05;19.10;99.90
39493;DHT22;25176;51.060;3.720;2022-09-09T08:14:33;18.80;99.90
39493;DHT22;25176;51.060;3.720;2022-09-09T08:16:59;18.80;99.90
39493;DHT22;25176;51.060;3.720;2022-09-09T08:19:24;18.70;99.90
39493;DHT22;25176;51.060;3.720;2022-09-09T08:21:50;18.60;99.90
39493;DHT22;25176;51.060;3.720;2022-09-09T08:24:16;18.60;99.90
39493;DHT22;25176;51.060;3.720;2022-09-09T08:26:42;18.60;99.90
39493;DHT22;25176;51.060;3.720;2022-09-09T08:29:09;18.50;99.90
39493;DHT22;25176;51.060;3.720;2022-09-09T08:31:36;18.40;99.90
39493;DHT22;25176;51.060;3.720;2022-09-09T08:34:02;18.40;99.90
39493;DHT22;25176;51.060;3.720;2022-09-09T08:36:29;18.50;99.90
39493;DHT22;25176;51.060;3.720;2022-09-09T08:38:56;18.40;99.90
39493;DHT22;25176;51.060;3.720;2022-09-09T08:43:51;18.30;99.90
39493;DHT22;25176;51.060;3.720;2022-09-09T08:46:21;18.40;99.90
39493;DHT22;25176;51.060;3.720;2022-09-09T08:51:15;18.70;99.90
39493;DHT22;25176;51.060;3.720;2022-09-09T08:53:42;18.60;99.90
39493;DHT22;25176;51.060;3.720;2022-09-09T08:56:09;18.60;99.90
39493;DHT22;25176;51.060;3.720;2022-09-09T08:58:46;18.60;99.90
39493;DHT22;25176;51.060;3.720;2022-09-09T09:01:28;18.40;99.90
39493;DHT22;25176;51.060;3.720;2022-09-09T09:04:04;18.60;99.90
39493;DHT22;25176;51.060;3.720;2022-09-09T09:06:39;18.70;99.90
39493;DHT22;25176;51.060;3.720;2022-09-09T09:09:25;18.70;99.90
39493;DHT22;25176;51.060;3.720;2022-09-09T09:12:00;18.60;99.90
39493;DHT22;25176;51.060;3.720;2022-09-09T09:14:31;18.60;99.90
39493;DHT22;25176;51.060;3.720;2022-09-09T09:17:03;18.50;99.90
39493;DHT22;25176;51.060;3.720;2022-09-09T09:19:29;18.60;99.90
39493;DHT22;25176;51.060;3.720;2022-09-09T09:24:55;18.70;99.90
39493;DHT22;25176;51.060;3.720;2022-09-09T09:27:14;18.80;99.90
39493;DHT22;25176;51.060;3.720;2022-09-09T09:29:40;19.10;99.90
39493;DHT22;25176;51.060;3.720;2022-09-09T09:32:10;19.20;99.90
39493;DHT22;25176;51.060;3.720;2022-09-09T09:34:37;19.70;99.90
39493;DHT22;25176;51.060;3.720;2022-09-09T09:37:07;19.90;99.90
39493;DHT22;25176;51.060;3.720;2022-09-09T09:39:37;20.30;99.90
39493;DHT22;25176;51.060;3.720;2022-09-09T09:42:14;20.40;99.90
39493;DHT22;25176;51.060;3.720;2022-09-09T09:44:40;20.50;99.90
39493;DHT22;25176;51.060;3.720;2022-09-09T09:47:08;20.30;99.90
39493;DHT22;25176;51.060;3.720;2022-09-09T09:49:36;20.10;99.90
39493;DHT22;25176;51.060;3.720;2022-09-09T09:52:03;19.90;99.90
39493;DHT22;25176;51.060;3.720;2022-09-09T09:54:30;20.00;99.90
39493;DHT22;25176;51.060;3.720;2022-09-09T09:57:07;20.00;99.90
39493;DHT22;25176;51.060;3.720;2022-09-09T09:59:34;20.00;99.90
39493;DHT22;25176;51.060;3.720;2022-09-09T10:04:38;19.70;99.90
39493;DHT22;25176;51.060;3.720;2022-09-09T10:07:11;19.80;99.90
39493;DHT22;25176;51.060;3.720;2022-09-09T10:09:36;19.60;99.90
39493;DHT22;25176;51.060;3.720;2022-09-09T10:17:21;19.60;99.90
39493;DHT22;25176;51.060;3.720;2022-09-09T10:22:24;19.90;99.90
39493;DHT22;25176;51.060;3.720;2022-09-09T10:30:20;20.40;99.90
39493;DHT22;25176;51.060;3.720;2022-09-09T10:35:25;20.60;99.90
39493;DHT22;25176;51.060;3.720;2022-09-09T10:40:38;20.20;99.90
39493;DHT22;25176;51.060;3.720;2022-09-09T10:43:09;20.40;99.90
39493;DHT22;25176;51.060;3.720;2022-09-09T10:51:14;20.80;99.90
39493;DHT22;25176;51.060;3.720;2022-09-09T10:56:18;20.80;99.90
39493;DHT22;25176;51.060;3.720;2022-09-09T10:58:51;20.70;99.90
39493;DHT22;25176;51.060;3.720;2022-09-09T11:01:22;20.80;99.90
39493;DHT22;25176;51.060;3.720;2022-09-09T11:03:51;20.80;99.90
39493;DHT22;25176;51.060;3.720;2022-09-09T11:06:19;20.80;99.90
39493;DHT22;25176;51.060;3.720;2022-09-09T11:08:46;21.00;99.90
39493;DHT22;25176;51.060;3.720;2022-09-09T11:11:20;21.30;99.90
39493;DHT22;25176;51.060;3.720;2022-09-09T11:14:02;21.20;99.90
39493;DHT22;25176;51.060;3.720;2022-09-09T11:21:48;22.20;99.90
39493;DHT22;25176;51.060;3.720;2022-09-09T11:26:51;22.60;99.80
39493;DHT22;25176;51.060;3.720;2022-09-09T11:29:22;22.50;99.40
39493;DHT22;25176;51.060;3.720;2022-09-09T11:34:31;22.20;99.90
39493;DHT22;25176;51.060;3.720;2022-09-09T11:37:08;22.10;99.90
39493;DHT22;25176;51.060;3.720;2022-09-09T11:39:44;21.90;99.90
39493;DHT22;25176;51.060;3.720;2022-09-09T11:42:22;21.90;99.90
39493;DHT22;25176;51.060;3.720;2022-09-09T11:44:48;22.00;99.90
39493;DHT22;25176;51.060;3.720;2022-09-09T11:47:21;22.20;99.90
39493;DHT22;25176;51.060;3.720;2022-09-09T11:49:49;22.10;99.90
39493;DHT22;25176;51.060;3.720;2022-09-09T11:54:47;21.90;99.90
39493;DHT22;25176;51.060;3.720;2022-09-09T11:57:36;21.80;99.90
39493;DHT22;25176;51.060;3.720;2022-09-09T12:00:01;21.50;99.90
39493;DHT22;25176;51.060;3.720;2022-09-09T12:02:28;21.60;99.90
39493;DHT22;25176;51.060;3.720;2022-09-09T12:05:06;21.60;99.90
39493;DHT22;25176;51.060;3.720;2022-09-09T12:10:34;22.10;99.90
39493;DHT22;25176;51.060;3.720;2022-09-09T12:13:07;22.10;99.90
39493;DHT22;25176;51.060;3.720;2022-09-09T12:15:33;22.00;99.90
39493;DHT22;25176;51.060;3.720;2022-09-09T12:17:58;21.90;99.90
39493;DHT22;25176;51.060;3.720;2022-09-09T12:20:36;22.00;99.90
39493;DHT22;25176;51.060;3.720;2022-09-09T12:25:46;22.00;99.90
39493;DHT22;25176;51.060;3.720;2022-09-09T12:33:23;22.30;99.90
39493;DHT22;25176;51.060;3.720;2022-09-09T12:35:52;22.40;99.50
39493;DHT22;25176;51.060;3.720;2022-09-09T12:38:26;22.00;99.90
39493;DHT22;25176;51.060;3.720;2022-09-09T12:40:55;21.90;99.90
39493;DHT22;25176;51.060;3.720;2022-09-09T12:43:22;22.00;99.90
39493;DHT22;25176;51.060;3.720;2022-09-09T12:45:48;21.80;99.90
39493;DHT22;25176;51.060;3.720;2022-09-09T12:48:24;22.10;99.90
39493;DHT22;25176;51.060;3.720;2022-09-09T12:50:51;22.20;99.90
39493;DHT22;25176;51.060;3.720;2022-09-09T12:55:56;22.20;99.80
39493;DHT22;25176;51.060;3.720;2022-09-09T12:58:21;22.00;99.90
39493;DHT22;25176;51.060;3.720;2022-09-09T13:00:51;21.80;99.90
39493;DHT22;25176;51.060;3.720;2022-09-09T13:03:18;21.90;99.90
39493;DHT22;25176;51.060;3.720;2022-09-09T13:05:44;21.90;99.90
39493;DHT22;25176;51.060;3.720;2022-09-09T13:08:15;22.00;99.90
39493;DHT22;25176;51.060;3.720;2022-09-09T13:10:49;21.90;99.90
39493;DHT22;25176;51.060;3.720;2022-09-09T13:13:23;21.70;99.90
39493;DHT22;25176;51.060;3.720;2022-09-09T13:15:56;21.70;99.90
39493;DHT22;25176;51.060;3.720;2022-09-09T13:18:23;21.80;99.90
39493;DHT22;25176;51.060;3.720;2022-09-09T13:20:49;22.10;99.90
39493;DHT22;25176;51.060;3.720;2022-09-09T13:23:15;22.30;99.90
39493;DHT22;25176;51.060;3.720;2022-09-09T13:25:51;22.50;99.90
39493;DHT22;25176;51.060;3.720;2022-09-09T13:28:20;22.60;99.90
39493;DHT22;25176;51.060;3.720;2022-09-09T13:30:54;22.80;99.90
39493;DHT22;25176;51.060;3.720;2022-09-09T13:33:22;23.00;99.90
39493;DHT22;25176;51.060;3.720;2022-09-09T13:36:07;23.10;99.90
39493;DHT22;25176;51.060;3.720;2022-09-09T13:38:35;23.40;99.50
39493;DHT22;25176;51.060;3.720;2022-09-09T13:41:02;23.10;98.60
39493;DHT22;25176;51.060;3.720;2022-09-09T13:43:42;23.00;98.80
39493;DHT22;25176;51.060;3.720;2022-09-09T13:48:56;22.70;98.80
39493;DHT22;25176;51.060;3.720;2022-09-09T13:54:23;22.70;98.40
39493;DHT22;25176;51.060;3.720;2022-09-09T13:56:48;22.70;98.10
39493;DHT22;25176;51.060;3.720;2022-09-09T13:59:16;22.70;98.30
39493;DHT22;25176;51.060;3.720;2022-09-09T14:01:43;22.70;98.50
39493;DHT22;25176;51.060;3.720;2022-09-09T14:04:10;22.90;98.40
39493;DHT22;25176;51.060;3.720;2022-09-09T14:06:36;22.80;98.30
39493;DHT22;25176;51.060;3.720;2022-09-09T14:09:03;22.80;98.40
39493;DHT22;25176;51.060;3.720;2022-09-09T14:11:29;22.70;98.30
39493;DHT22;25176;51.060;3.720;2022-09-09T14:13:55;22.60;98.70
39493;DHT22;25176;51.060;3.720;2022-09-09T14:16:21;22.70;97.90
39493;DHT22;25176;51.060;3.720;2022-09-09T14:18:47;22.50;97.90
39493;DHT22;25176;51.060;3.720;2022-09-09T14:21:12;22.40;98.00
39493;DHT22;25176;51.060;3.720;2022-09-09T14:23:38;22.40;98.30
39493;DHT22;25176;51.060;3.720;2022-09-09T14:26:07;22.20;98.70
39493;DHT22;25176;51.060;3.720;2022-09-09T14:28:33;22.40;98.50
39493;DHT22;25176;51.060;3.720;2022-09-09T14:31:02;22.50;98.30
39493;DHT22;25176;51.060;3.720;2022-09-09T14:33:29;22.60;98.60
39493;DHT22;25176;51.060;3.720;2022-09-09T14:35:55;22.60;99.10
39493;DHT22;25176;51.060;3.720;2022-09-09T14:38:21;22.80;99.60
39493;DHT22;25176;51.060;3.720;2022-09-09T14:40:47;23.00;98.90
39493;DHT22;25176;51.060;3.720;2022-09-09T14:43:12;23.20;98.30
39493;DHT22;25176;51.060;3.720;2022-09-09T14:45:38;23.00;98.00
39493;DHT22;25176;51.060;3.720;2022-09-09T14:48:04;22.90;97.80
39493;DHT22;25176;51.060;3.720;2022-09-09T14:50:29;22.90;97.70
39493;DHT22;25176;51.060;3.720;2022-09-09T14:52:55;22.80;97.80
39493;DHT22;25176;51.060;3.720;2022-09-09T14:55:20;22.80;97.40
39493;DHT22;25176;51.060;3.720;2022-09-09T14:57:46;22.50;98.00
39493;DHT22;25176;51.060;3.720;2022-09-09T15:00:12;22.30;98.10
39493;DHT22;25176;51.060;3.720;2022-09-09T15:02:38;22.50;98.10
39493;DHT22;25176;51.060;3.720;2022-09-09T15:05:04;22.70;97.60
39493;DHT22;25176;51.060;3.720;2022-09-09T15:07:29;22.80;97.30
39493;DHT22;25176;51.060;3.720;2022-09-09T15:09:57;22.80;97.40
39493;DHT22;25176;51.060;3.720;2022-09-09T15:12:22;22.70;97.60
39493;DHT22;25176;51.060;3.720;2022-09-09T15:14:48;22.50;98.30
39493;DHT22;25176;51.060;3.720;2022-09-09T15:17:15;22.50;98.30
39493;DHT22;25176;51.060;3.720;2022-09-09T15:19:41;22.50;98.10
39493;DHT22;25176;51.060;3.720;2022-09-09T15:22:07;22.60;98.20
39493;DHT22;25176;51.060;3.720;2022-09-09T15:24:33;22.70;98.10
39493;DHT22;25176;51.060;3.720;2022-09-09T15:26:59;22.60;97.90
39493;DHT22;25176;51.060;3.720;2022-09-09T15:29:25;22.70;98.10
39493;DHT22;25176;51.060;3.720;2022-09-09T15:31:50;22.80;97.90
39493;DHT22;25176;51.060;3.720;2022-09-09T15:34:16;22.60;97.60
39493;DHT22;25176;51.060;3.720;2022-09-09T15:36:44;22.50;98.40
39493;DHT22;25176;51.060;3.720;2022-09-09T15:39:12;22.40;98.50
39493;DHT22;25176;51.060;3.720;2022-09-09T15:41:44;22.30;99.00
39493;DHT22;25176;51.060;3.720;2022-09-09T15:44:10;22.30;98.80
39493;DHT22;25176;51.060;3.720;2022-09-09T15:46:41;22.20;98.70
39493;DHT22;25176;51.060;3.720;2022-09-09T15:49:08;22.20;98.40
39493;DHT22;25176;51.060;3.720;2022-09-09T15:51:34;22.10;97.70
39493;DHT22;25176;51.060;3.720;2022-09-09T15:54:00;22.10;97.30
39493;DHT22;25176;51.060;3.720;2022-09-09T15:56:26;21.90;97.90
39493;DHT22;25176;51.060;3.720;2022-09-09T15:58:53;21.70;97.90
39493;DHT22;25176;51.060;3.720;2022-09-09T16:01:20;21.70;98.00
39493;DHT22;25176;51.060;3.720;2022-09-09T16:03:45;21.70;97.90
39493;DHT22;25176;51.060;3.720;2022-09-09T16:06:12;21.90;97.90
39493;DHT22;25176;51.060;3.720;2022-09-09T16:08:39;21.90;98.00
39493;DHT22;25176;51.060;3.720;2022-09-09T16:11:09;21.90;97.80
39493;DHT22;25176;51.060;3.720;2022-09-09T16:13:35;22.00;97.30
39493;DHT22;25176;51.060;3.720;2022-09-09T16:16:01;22.20;97.30
39493;DHT22;25176;51.060;3.720;2022-09-09T16:18:32;22.20;97.00
39493;DHT22;25176;51.060;3.720;2022-09-09T16:20:57;22.20;96.80
39493;DHT22;25176;51.060;3.720;2022-09-09T16:23:23;22.10;96.70
39493;DHT22;25176;51.060;3.720;2022-09-09T16:25:53;22.20;96.60
39493;DHT22;25176;51.060;3.720;2022-09-09T16:28:18;22.20;96.70
39493;DHT22;25176;51.060;3.720;2022-09-09T16:30:44;22.30;96.70
39493;DHT22;25176;51.060;3.720;2022-09-09T16:33:09;22.10;96.90
39493;DHT22;25176;51.060;3.720;2022-09-09T16:35:36;22.00;97.30
39493;DHT22;25176;51.060;3.720;2022-09-09T16:38:02;21.90;97.40
39493;DHT22;25176;51.060;3.720;2022-09-09T16:40:28;21.90;97.80
39493;DHT22;25176;51.060;3.720;2022-09-09T16:42:53;22.00;97.70
39493;DHT22;25176;51.060;3.720;2022-09-09T16:45:20;22.00;97.60
39493;DHT22;25176;51.060;3.720;2022-09-09T16:47:45;21.90;97.80
39493;DHT22;25176;51.060;3.720;2022-09-09T16:50:11;21.80;98.20
39493;DHT22;25176;51.060;3.720;2022-09-09T16:52:36;21.80;98.30
39493;DHT22;25176;51.060;3.720;2022-09-09T16:55:01;21.90;98.40
39493;DHT22;25176;51.060;3.720;2022-09-09T16:57:27;21.80;98.60
39493;DHT22;25176;51.060;3.720;2022-09-09T16:59:55;21.70;98.70
39493;DHT22;25176;51.060;3.720;2022-09-09T17:02:24;21.80;98.60
39493;DHT22;25176;51.060;3.720;2022-09-09T17:04:50;21.80;98.50
39493;DHT22;25176;51.060;3.720;2022-09-09T17:07:16;21.80;98.60
39493;DHT22;25176;51.060;3.720;2022-09-09T17:09:41;21.80;99.40
39493;DHT22;25176;51.060;3.720;2022-09-09T17:12:07;21.70;99.90
39493;DHT22;25176;51.060;3.720;2022-09-09T17:14:33;21.60;99.90
39493;DHT22;25176;51.060;3.720;2022-09-09T17:16:59;21.40;99.90
39493;DHT22;25176;51.060;3.720;2022-09-09T17:19:25;21.40;99.90
39493;DHT22;25176;51.060;3.720;2022-09-09T17:21:51;21.30;99.90
39493;DHT22;25176;51.060;3.720;2022-09-09T17:24:17;21.30;99.90
39493;DHT22;25176;51.060;3.720;2022-09-09T17:26:42;21.20;99.90
39493;DHT22;25176;51.060;3.720;2022-09-09T17:29:08;21.20;99.90
39493;DHT22;25176;51.060;3.720;2022-09-09T17:31:36;21.20;99.90